createdAt,value
2022-08-14T00:01:37.782Z,6.40
2022-08-14T00:04:41.898Z,7.15
2022-08-14T00:07:46.314Z,5.73
2022-08-14T00:10:52.792Z,5.32
2022-08-14T00:13:56.014Z,6.30
2022-08-14T00:16:58.866Z,7.20
2022-08-14T00:20:05.413Z,5.32
2022-08-14T00:23:14.663Z,6.20
2022-08-14T00:26:21.968Z,5.93
2022-08-14T00:29:27.109Z,6.12
2022-08-14T00:32:51.830Z,5.53
2022-08-14T00:36:35.040Z,6.03
2022-08-14T00:39:18.233Z,6.00
2022-08-14T00:42:55.924Z,6.57
2022-08-14T00:45:51.661Z,6.93
2022-08-14T00:48:55.711Z,6.30
2022-08-14T00:52:00.824Z,5.70
2022-08-14T00:55:07.306Z,6.43
2022-08-14T00:58:32.876Z,4.97
2022-08-14T01:01:37.134Z,6.15
2022-08-14T01:04:53.728Z,6.68
2022-08-14T01:08:00.908Z,6.25
2022-08-14T01:11:06.574Z,4.90
2022-08-14T01:14:25.404Z,6.57
2022-08-14T01:17:51.917Z,7.07
2022-08-14T01:21:07.369Z,6.68
2022-08-14T01:24:10.966Z,4.93
2022-08-14T01:27:18.686Z,6.50
2022-08-14T01:30:24.137Z,7.35
2022-08-14T01:33:30.412Z,6.70
2022-08-14T01:36:39.825Z,6.35
2022-08-14T01:39:43.273Z,6.68
2022-08-14T01:42:45.973Z,6.33
2022-08-14T01:45:57.837Z,5.35
2022-08-14T01:49:11.351Z,6.35
2022-08-14T01:52:34.309Z,7.00
2022-08-14T01:55:40.261Z,6.03
2022-08-14T01:58:57.564Z,6.13
2022-08-14T02:02:05.483Z,6.43
2022-08-14T02:05:14.075Z,5.03
2022-08-14T02:08:22.466Z,6.22
2022-08-14T02:11:37.753Z,5.95
2022-08-14T02:14:40.423Z,7.00
2022-08-14T02:18:04.386Z,7.03
2022-08-14T02:21:07.144Z,6.85
2022-08-14T02:24:39.908Z,5.55
2022-08-14T02:28:24.615Z,5.72
2022-08-14T02:30:56.723Z,6.87
2022-08-14T02:34:00.967Z,6.10
2022-08-14T02:37:11.369Z,6.57
2022-08-14T02:40:14.247Z,6.45
2022-08-14T02:43:17.572Z,6.45
2022-08-14T02:46:32.337Z,5.40
2022-08-14T02:49:37.508Z,6.00
2022-08-14T02:52:56.049Z,6.60
2022-08-14T02:56:04.749Z,7.20
2022-08-14T02:59:28.809Z,6.55
2022-08-14T03:02:56.153Z,6.70
2022-08-14T03:05:56.201Z,6.82
2022-08-14T03:08:59.803Z,7.32
2022-08-14T03:12:04.887Z,5.75
2022-08-14T03:15:14.235Z,6.50
2022-08-14T03:18:21.367Z,8.47
2022-08-14T03:21:37.220Z,6.53
2022-08-14T03:24:39.740Z,6.60
2022-08-14T03:27:47.764Z,6.85
2022-08-14T03:30:59.922Z,7.22
2022-08-14T03:34:04.579Z,6.67
2022-08-14T03:37:38.051Z,7.10
2022-08-14T03:40:38.490Z,7.20
2022-08-14T03:43:41.815Z,5.25
2022-08-14T03:46:52.609Z,6.78
2022-08-14T03:49:58.317Z,7.37
2022-08-14T03:53:02.172Z,7.43
2022-08-14T03:56:06.114Z,7.25
2022-08-14T03:59:17.907Z,6.85
2022-08-14T04:02:32.707Z,7.30
2022-08-14T04:05:48.321Z,6.77
2022-08-14T04:08:52.362Z,6.87
2022-08-14T04:11:56.042Z,7.20
2022-08-14T04:14:58.891Z,7.00
2022-08-14T04:18:08.655Z,7.70
2022-08-14T04:21:16.295Z,6.83
2022-08-14T04:24:20.105Z,7.05
2022-08-14T04:27:29.484Z,6.85
2022-08-14T04:30:39.376Z,7.68
2022-08-14T04:33:44.801Z,8.07
2022-08-14T04:37:07.281Z,6.90
2022-08-14T04:40:29.028Z,6.85
2022-08-14T04:43:39.518Z,7.47
2022-08-14T04:47:02.426Z,7.43
2022-08-14T04:50:06.065Z,6.25
2022-08-14T04:53:12.933Z,7.57
2022-08-14T04:56:30.636Z,7.28
2022-08-14T04:59:37.183Z,7.93
2022-08-14T05:02:46.116Z,7.72
2022-08-14T05:05:54.559Z,7.20
2022-08-14T05:08:59.978Z,7.53
2022-08-14T05:13:12.866Z,5.72
2022-08-14T05:15:29.529Z,7.47
2022-08-14T05:19:24.648Z,7.90
2022-08-14T05:22:15.701Z,6.50
2022-08-14T05:25:20.679Z,8.23
2022-08-14T05:28:25.919Z,6.70
2022-08-14T05:31:39.690Z,7.93
2022-08-14T05:34:45.729Z,7.55
2022-08-14T05:37:50.206Z,6.90
2022-08-14T05:40:53.267Z,6.80
2022-08-14T05:43:56.588Z,7.30
2022-08-14T05:47:00.570Z,6.47
2022-08-14T05:50:03.938Z,7.65
2022-08-14T05:53:08.567Z,8.60
2022-08-14T05:56:14.186Z,5.50
2022-08-14T05:59:16.995Z,7.60
2022-08-14T06:02:19.482Z,8.00
2022-08-14T06:05:28.620Z,7.57
2022-08-14T06:08:41.215Z,8.40
2022-08-14T06:11:44.646Z,6.60
2022-08-14T06:14:52.431Z,6.97
2022-08-14T06:17:59.611Z,6.03
2022-08-14T06:21:04.299Z,9.18
2022-08-14T06:24:10.379Z,8.35
2022-08-14T06:27:20.522Z,8.17
2022-08-14T06:30:30.134Z,9.00
2022-08-14T06:35:03.030Z,9.32
2022-08-14T06:37:07.338Z,8.00
2022-08-14T06:40:25.722Z,7.43
2022-08-14T06:43:31.798Z,7.80
2022-08-14T06:46:37.038Z,8.25
2022-08-14T06:49:44.262Z,7.97
2022-08-14T06:52:51.244Z,7.18
2022-08-14T06:55:58.424Z,7.65
2022-08-14T06:59:05.381Z,7.63
2022-08-14T07:02:28.840Z,7.00
2022-08-14T07:05:55.030Z,6.37
2022-08-14T07:08:59.093Z,7.47
2022-08-14T07:12:02.634Z,7.47
2022-08-14T07:15:06.381Z,6.67
2022-08-14T07:18:09.643Z,6.95
2022-08-14T07:21:12.505Z,7.47
2022-08-14T07:24:22.127Z,7.07
2022-08-14T07:27:33.483Z,7.45
2022-08-14T07:30:42.041Z,7.30
2022-08-14T07:33:54.690Z,7.15
2022-08-14T07:37:00.948Z,7.40
2022-08-14T07:40:05.908Z,6.50
2022-08-14T07:43:14.264Z,7.70
2022-08-14T07:46:21.319Z,6.50
2022-08-14T07:49:32.611Z,7.30
2022-08-14T07:52:35.543Z,7.05
2022-08-14T07:55:38.524Z,7.10
2022-08-14T07:58:51.417Z,8.18
2022-08-14T08:01:58.502Z,7.80
2022-08-14T08:05:02.720Z,7.97
2022-08-14T08:08:08.460Z,8.20
2022-08-14T08:11:34.805Z,7.90
2022-08-14T08:14:56.901Z,7.47
2022-08-14T08:18:08.220Z,7.60
2022-08-14T08:21:23.361Z,8.18
2022-08-14T08:24:30.069Z,7.47
2022-08-14T08:27:32.553Z,8.18
2022-08-14T08:30:38.054Z,7.95
2022-08-14T08:33:53.211Z,7.30
2022-08-14T08:37:00.851Z,7.35
2022-08-14T08:40:08.287Z,6.72
2022-08-14T08:43:30.368Z,7.10
2022-08-14T08:46:33.332Z,6.65
2022-08-14T08:49:43.300Z,6.90
2022-08-14T08:52:58.358Z,7.32
2022-08-14T08:56:01.790Z,7.47
2022-08-14T08:59:16.400Z,7.37
2022-08-14T09:02:19.895Z,7.03
2022-08-14T09:05:22.984Z,6.63
2022-08-14T09:08:32.987Z,6.57
2022-08-14T09:11:36.241Z,6.62
2022-08-14T09:14:40.047Z,7.03
2022-08-14T09:17:43.630Z,6.65
2022-08-14T09:20:51.864Z,6.60
2022-08-14T09:24:26.362Z,6.93
2022-08-14T09:27:22.690Z,7.10
2022-08-14T09:30:31.612Z,7.05
2022-08-14T09:33:56.519Z,7.10
2022-08-14T09:37:18.103Z,6.17
2022-08-14T09:40:42.977Z,5.70
2022-08-14T09:44:21.145Z,6.50
2022-08-14T09:47:49.196Z,7.18
2022-08-14T09:50:56.681Z,6.47
2022-08-14T09:54:22.488Z,6.40
2022-08-14T09:57:27.761Z,6.20
2022-08-14T10:00:46.618Z,6.18
2022-08-14T10:04:00.098Z,5.53
2022-08-14T10:07:03.893Z,6.32
2022-08-14T10:10:23.701Z,5.40
2022-08-14T10:13:26.849Z,5.10
2022-08-14T10:16:33.384Z,4.85
2022-08-14T10:19:47.845Z,4.82
2022-08-14T10:23:14.444Z,5.25
2022-08-14T10:26:22.652Z,4.53
2022-08-14T10:29:34.559Z,5.32
2022-08-14T10:32:51.426Z,5.03
2022-08-14T10:35:56.268Z,5.57
2022-08-14T10:39:00.817Z,4.82
2022-08-14T10:42:16.519Z,5.73
2022-08-14T10:45:35.689Z,5.80
2022-08-14T10:49:02.441Z,5.90
2022-08-14T10:52:06.443Z,4.12
2022-08-14T10:55:14.944Z,5.65
2022-08-14T10:58:27.883Z,5.57
2022-08-14T11:01:41.436Z,5.75
2022-08-14T11:04:44.669Z,5.82
2022-08-14T11:07:55.388Z,4.53
2022-08-14T11:11:01.656Z,5.37
2022-08-14T11:14:06.648Z,4.80
2022-08-14T11:17:13.326Z,5.12
2022-08-14T11:20:19.059Z,5.05
2022-08-14T11:23:27.445Z,5.15
2022-08-14T11:26:44.147Z,4.40
2022-08-14T11:29:52.545Z,4.27
2022-08-14T11:32:56.044Z,4.80
2022-08-14T11:36:01.734Z,4.97
2022-08-14T11:39:04.763Z,4.32
2022-08-14T11:42:57.730Z,5.05
2022-08-14T11:45:48.882Z,3.97
2022-08-14T11:49:02.388Z,4.95
2022-08-14T11:52:08.317Z,4.62
2022-08-14T11:55:13.654Z,4.12
2022-08-14T11:58:23.815Z,4.65
2022-08-14T12:01:29.452Z,4.70
2022-08-14T12:04:34.948Z,4.37
2022-08-14T12:07:49.413Z,4.78
2022-08-14T12:10:56.987Z,5.28
2022-08-14T12:14:08.550Z,5.35
2022-08-14T12:17:16.451Z,4.90
2022-08-14T12:20:37.747Z,5.05
2022-08-14T12:24:09.486Z,4.80
2022-08-14T12:27:41.697Z,4.57
2022-08-14T12:30:56.965Z,5.45
2022-08-14T12:34:02.155Z,5.80
2022-08-14T12:37:12.911Z,5.25
2022-08-14T12:40:19.633Z,6.03
2022-08-14T12:43:24.617Z,3.33
2022-08-14T12:46:35.105Z,5.50
2022-08-14T12:49:47.997Z,5.40
2022-08-14T12:52:58.724Z,4.95
2022-08-14T12:56:29.673Z,4.28
2022-08-14T12:59:42.338Z,4.50
2022-08-14T13:02:48.016Z,5.40
2022-08-14T13:05:58.075Z,5.00
2022-08-14T13:09:07.749Z,5.32
2022-08-14T13:12:33.186Z,5.20
2022-08-14T13:15:40.208Z,4.95
2022-08-14T13:18:46.740Z,4.75
2022-08-14T13:22:04.964Z,4.80
2022-08-14T13:25:15.820Z,5.35
2022-08-14T13:28:33.041Z,5.32
2022-08-14T13:31:39.001Z,4.35
2022-08-14T13:34:45.353Z,4.78
2022-08-14T13:37:53.578Z,4.70
2022-08-14T13:40:57.003Z,5.30
2022-08-14T13:44:00.701Z,5.03
2022-08-14T13:47:07.017Z,4.80
2022-08-14T13:50:18.191Z,4.68
2022-08-14T13:53:24.226Z,4.57
2022-08-14T13:56:36.289Z,4.90
2022-08-14T13:59:45.935Z,4.68
2022-08-14T14:02:48.796Z,4.90
2022-08-14T14:05:56.040Z,4.70
2022-08-14T14:08:59.621Z,4.80
2022-08-14T14:12:04.049Z,5.20
2022-08-14T14:15:17.643Z,4.80
2022-08-14T14:18:34.103Z,4.55
2022-08-14T14:21:40.903Z,4.62
2022-08-14T14:24:46.346Z,4.33
2022-08-14T14:27:53.291Z,4.55
2022-08-14T14:30:57.444Z,4.80
2022-08-14T14:34:07.709Z,4.60
2022-08-14T14:37:24.168Z,4.82
2022-08-14T14:40:52.819Z,4.30
2022-08-14T14:43:52.947Z,4.37
2022-08-14T14:46:58.346Z,4.75
2022-08-14T14:50:04.013Z,4.55
2022-08-14T14:53:12.909Z,4.60
2022-08-14T14:56:47.757Z,3.93
2022-08-14T14:59:39.297Z,4.00
2022-08-14T15:02:44.491Z,4.65
2022-08-14T15:05:48.036Z,4.15
2022-08-14T15:08:56.521Z,4.65
2022-08-14T15:12:05.641Z,4.43
2022-08-14T15:15:19.241Z,4.50
2022-08-14T15:18:36.572Z,4.28
2022-08-14T15:21:41.338Z,4.32
2022-08-14T15:24:44.330Z,4.95
2022-08-14T15:27:54.632Z,3.93
2022-08-14T15:30:58.908Z,3.92
2022-08-14T15:34:44.705Z,4.55
2022-08-14T15:37:36.529Z,4.10
2022-08-14T15:40:46.306Z,4.70
2022-08-14T15:43:56.827Z,3.87
2022-08-14T15:47:00.340Z,4.15
2022-08-14T15:50:08.625Z,4.35
2022-08-14T15:53:12.798Z,4.15
2022-08-14T15:56:42.570Z,4.70
2022-08-14T15:59:58.359Z,3.97
2022-08-14T16:03:01.909Z,3.97
2022-08-14T16:06:11.016Z,4.57
2022-08-14T16:09:18.464Z,4.30
2022-08-14T16:12:41.405Z,3.90
2022-08-14T16:15:53.559Z,4.37
2022-08-14T16:18:58.939Z,3.97
2022-08-14T16:23:00.233Z,4.35
2022-08-14T16:25:35.414Z,4.57
2022-08-14T16:28:39.411Z,4.12
2022-08-14T16:31:43.712Z,4.37
2022-08-14T16:34:49.227Z,4.10
2022-08-14T16:37:55.642Z,4.28
2022-08-14T16:41:26.876Z,3.80
2022-08-14T16:44:36.466Z,4.12
2022-08-14T16:47:39.776Z,3.97
2022-08-14T16:50:44.115Z,4.05
2022-08-14T16:53:47.529Z,4.30
2022-08-14T16:56:50.407Z,4.15
2022-08-14T16:59:58.885Z,3.87
2022-08-14T17:03:08.619Z,4.10
2022-08-14T17:06:36.299Z,3.85
2022-08-14T17:09:45.592Z,3.95
2022-08-14T17:12:48.543Z,4.40
2022-08-14T17:16:24.691Z,4.10
2022-08-14T17:19:40.209Z,3.70
2022-08-14T17:22:45.100Z,4.00
2022-08-14T17:25:51.274Z,4.15
2022-08-14T17:29:11.186Z,4.07
2022-08-14T17:32:28.192Z,4.28
2022-08-14T17:39:06.879Z,4.65
2022-08-14T17:42:13.436Z,4.40
2022-08-14T17:45:28.076Z,4.07
2022-08-14T17:49:15.445Z,4.50
2022-08-14T17:52:16.763Z,4.20
2022-08-14T17:56:02.064Z,4.50
2022-08-14T17:58:44.358Z,4.05
2022-08-14T18:01:47.747Z,4.18
2022-08-14T18:04:52.666Z,4.25
2022-08-14T18:08:32.152Z,3.80
2022-08-14T18:11:21.885Z,4.40
2022-08-14T18:14:32.205Z,4.50
2022-08-14T18:17:36.772Z,5.00
2022-08-14T18:21:42.272Z,4.55
2022-08-14T18:24:04.181Z,3.90
2022-08-14T18:27:24.578Z,4.72
2022-08-14T18:30:33.512Z,5.12
2022-08-14T18:33:53.023Z,4.85
2022-08-14T18:36:58.069Z,4.37
2022-08-14T18:40:34.410Z,4.60
2022-08-14T18:43:58.904Z,4.95
2022-08-14T18:47:08.549Z,4.10
2022-08-14T18:50:34.512Z,4.43
2022-08-14T18:53:53.801Z,4.53
2022-08-14T18:56:59.518Z,4.50
2022-08-14T19:00:32.224Z,4.60
2022-08-14T19:03:37.154Z,4.78
2022-08-14T19:06:49.087Z,4.70
2022-08-14T19:10:01.193Z,4.82
2022-08-14T19:13:12.250Z,4.20
2022-08-14T19:16:16.670Z,4.80
2022-08-14T19:19:19.687Z,4.93
2022-08-14T19:22:31.055Z,4.43
2022-08-14T19:25:54.445Z,4.68
2022-08-14T19:28:58.536Z,4.27
2022-08-14T19:32:04.028Z,4.95
2022-08-14T19:35:18.100Z,5.12
2022-08-14T19:38:44.264Z,4.90
2022-08-14T19:41:56.863Z,5.03
2022-08-14T19:45:00.888Z,4.20
2022-08-14T19:48:12.367Z,5.10
2022-08-14T19:51:15.768Z,5.10
2022-08-14T19:54:18.824Z,5.00
2022-08-14T19:57:29.141Z,4.87
2022-08-14T20:00:33.119Z,4.57
2022-08-14T20:04:00.136Z,5.47
2022-08-14T20:07:06.486Z,4.40
2022-08-14T20:11:05.837Z,5.20
2022-08-14T20:14:27.993Z,4.47
2022-08-14T20:17:32.348Z,5.37
2022-08-14T20:20:43.290Z,5.20
2022-08-14T20:23:48.100Z,4.62
2022-08-14T20:27:23.528Z,5.22
2022-08-14T20:30:34.076Z,5.17
2022-08-14T20:33:47.935Z,4.80
2022-08-14T20:37:00.973Z,4.95
2022-08-14T20:40:23.671Z,5.37
2022-08-14T20:43:52.882Z,5.47
2022-08-14T20:47:00.983Z,5.18
2022-08-14T20:50:20.193Z,5.00
2022-08-14T20:53:35.497Z,5.50
2022-08-14T20:56:44.608Z,5.30
2022-08-14T20:59:53.013Z,5.60
2022-08-14T21:02:56.217Z,5.15
2022-08-14T21:06:17.127Z,5.43
2022-08-14T21:10:03.484Z,5.20
2022-08-14T21:13:26.275Z,5.93
2022-08-14T21:16:33.394Z,5.30
2022-08-14T21:19:35.170Z,5.37
2022-08-14T21:22:44.677Z,5.50
2022-08-14T21:25:50.751Z,5.28
2022-08-14T21:28:53.636Z,5.30
2022-08-14T21:31:56.787Z,4.85
2022-08-14T21:35:02.080Z,5.07
2022-08-14T21:38:17.891Z,4.80
2022-08-14T21:41:41.524Z,5.35
2022-08-14T21:44:50.860Z,5.20
2022-08-14T21:47:54.130Z,5.55
2022-08-14T21:51:01.378Z,5.25
2022-08-14T21:54:32.594Z,5.37
2022-08-14T21:57:56.535Z,5.72
2022-08-14T22:01:12.687Z,6.43
2022-08-14T22:04:32.174Z,5.80
2022-08-14T22:07:38.904Z,5.93
2022-08-14T22:10:46.804Z,6.20
2022-08-14T22:13:50.756Z,5.05
2022-08-14T22:17:01.464Z,6.37
2022-08-14T22:20:16.333Z,5.97
2022-08-14T22:23:19.661Z,6.37
2022-08-14T22:26:22.444Z,6.10
2022-08-14T22:29:34.422Z,5.70
2022-08-14T22:32:56.518Z,6.10
2022-08-14T22:36:01.574Z,5.80
2022-08-14T22:39:10.962Z,5.32
2022-08-14T22:42:21.170Z,5.73
2022-08-14T22:45:25.115Z,6.00
2022-08-14T22:48:39.594Z,5.82
2022-08-14T22:51:48.608Z,6.03
2022-08-14T22:54:53.900Z,6.18
2022-08-14T22:57:56.501Z,6.23
2022-08-14T23:01:01.584Z,6.45
2022-08-14T23:04:05.062Z,6.18
2022-08-14T23:07:14.461Z,6.18
2022-08-14T23:10:34.763Z,5.60
2022-08-14T23:13:40.390Z,6.00
2022-08-14T23:16:51.677Z,6.32
2022-08-14T23:20:00.526Z,7.30
2022-08-14T23:23:11.364Z,5.93
2022-08-14T23:26:48.523Z,6.65
2022-08-14T23:29:37.877Z,6.67
2022-08-14T23:32:42.854Z,6.57
2022-08-14T23:35:58.764Z,6.32
2022-08-14T23:39:07.243Z,5.60
2022-08-14T23:42:17.991Z,6.35
2022-08-14T23:45:35.330Z,6.80
2022-08-14T23:48:46.475Z,6.70
2022-08-14T23:52:49.731Z,6.87
2022-08-14T23:55:12.657Z,6.12
2022-08-14T23:58:29.200Z,6.80
